sensor_id;sensor_type;location;lat;lon;timestamp;temperature;humidity
5930;DHT22;2990;48.746;9.236;2022-09-30T07:37:02;7.70;99.90
5930;DHT22;2990;48.746;9.236;2022-09-30T07:39:28;7.60;99.90
5930;DHT22;2990;48.746;9.236;2022-09-30T07:41:55;7.70;99.90
5930;DHT22;2990;48.746;9.236;2022-09-30T07:44:20;7.80;99.90
5930;DHT22;2990;48.746;9.236;2022-09-30T07:46:46;7.90;99.90
5930;DHT22;2990;48.746;9.236;2022-09-30T07:49:14;8.00;99.90
5930;DHT22;2990;48.746;9.236;2022-09-30T07:51:45;8.20;99.90
5930;DHT22;2990;48.746;9.236;2022-09-30T07:54:14;8.30;99.90
5930;DHT22;2990;48.746;9.236;2022-09-30T07:56:40;8.40;99.90
5930;DHT22;2990;48.746;9.236;2022-09-30T07:59:09;8.40;99.90
5930;DHT22;2990;48.746;9.236;2022-09-30T08:01:35;8.50;99.90
5930;DHT22;2990;48.746;9.236;2022-09-30T08:04:03;8.50;99.90
5930;DHT22;2990;48.746;9.236;2022-09-30T08:06:30;8.60;99.90
5930;DHT22;2990;48.746;9.236;2022-09-30T08:08:57;8.60;99.90
5930;DHT22;2990;48.746;9.236;2022-09-30T08:11:24;8.70;99.90
5930;DHT22;2990;48.746;9.236;2022-09-30T08:13:50;8.80;99.90
5930;DHT22;2990;48.746;9.236;2022-09-30T08:16:17;8.80;99.90
5930;DHT22;2990;48.746;9.236;2022-09-30T08:18:42;8.80;99.90
5930;DHT22;2990;48.746;9.236;2022-09-30T08:21:08;8.90;99.90
5930;DHT22;2990;48.746;9.236;2022-09-30T08:23:33;9.10;99.90
5930;DHT22;2990;48.746;9.236;2022-09-30T08:26:01;9.20;99.90
5930;DHT22;2990;48.746;9.236;2022-09-30T08:28:27;9.30;99.90
5930;DHT22;2990;48.746;9.236;2022-09-30T08:31:01;9.30;99.90
5930;DHT22;2990;48.746;9.236;2022-09-30T08:33:27;9.40;99.90
5930;DHT22;2990;48.746;9.236;2022-09-30T08:35:52;9.50;99.90
5930;DHT22;2990;48.746;9.236;2022-09-30T08:38:18;9.70;99.90
5930;DHT22;2990;48.746;9.236;2022-09-30T08:40:54;9.80;99.90
5930;DHT22;2990;48.746;9.236;2022-09-30T08:43:34;9.90;99.90
5930;DHT22;2990;48.746;9.236;2022-09-30T08:46:14;10.00;66.80
5930;DHT22;2990;48.746;9.236;2022-09-30T08:53:54;10.20;1.00
5930;DHT22;2990;48.746;9.236;2022-09-30T08:56:24;10.20;1.00
5930;DHT22;2990;48.746;9.236;2022-09-30T08:59:13;10.30;1.00
5930;DHT22;2990;48.746;9.236;2022-09-30T09:01:50;10.50;1.00
5930;DHT22;2990;48.746;9.236;2022-09-30T09:04:20;10.50;1.00
5930;DHT22;2990;48.746;9.236;2022-09-30T09:13:03;10.90;1.00
5930;DHT22;2990;48.746;9.236;2022-09-30T09:24:02;11.80;1.00
5930;DHT22;2990;48.746;9.236;2022-09-30T09:26:35;11.60;99.90
5930;DHT22;2990;48.746;9.236;2022-09-30T09:29:36;11.90;99.90
5930;DHT22;2990;48.746;9.236;2022-09-30T09:32:14;12.00;1.00
5930;DHT22;2990;48.746;9.236;2022-09-30T09:34:41;12.10;99.90
5930;DHT22;2990;48.746;9.236;2022-09-30T09:37:16;12.40;1.00
5930;DHT22;2990;48.746;9.236;2022-09-30T09:39:58;12.40;1.00
5930;DHT22;2990;48.746;9.236;2022-09-30T09:45:00;12.60;1.00
5930;DHT22;2990;48.746;9.236;2022-09-30T09:47:26;12.70;99.90
5930;DHT22;2990;48.746;9.236;2022-09-30T09:49:58;12.60;66.30
5930;DHT22;2990;48.746;9.236;2022-09-30T09:55:19;12.50;37.90
5930;DHT22;2990;48.746;9.236;2022-09-30T09:57:45;12.70;1.00
5930;DHT22;2990;48.746;9.236;2022-09-30T10:00:22;12.80;99.90
5930;DHT22;2990;48.746;9.236;2022-09-30T10:10:45;12.80;1.00
5930;DHT22;2990;48.746;9.236;2022-09-30T10:15:45;13.60;99.90
5930;DHT22;2990;48.746;9.236;2022-09-30T10:18:22;13.60;99.90
5930;DHT22;2990;48.746;9.236;2022-09-30T10:20:55;13.60;1.00
5930;DHT22;2990;48.746;9.236;2022-09-30T10:23:29;13.60;1.00
5930;DHT22;2990;48.746;9.236;2022-09-30T10:26:34;13.90;99.90
5930;DHT22;2990;48.746;9.236;2022-09-30T10:28:51;14.20;90.40
5930;DHT22;2990;48.746;9.236;2022-09-30T10:31:27;14.40;1.00
5930;DHT22;2990;48.746;9.236;2022-09-30T10:36:20;14.80;1.00
5930;DHT22;2990;48.746;9.236;2022-09-30T10:39:02;14.70;99.90
5930;DHT22;2990;48.746;9.236;2022-09-30T10:41:32;14.80;99.90
5930;DHT22;2990;48.746;9.236;2022-09-30T10:44:00;14.70;99.90
5930;DHT22;2990;48.746;9.236;2022-09-30T10:46:34;14.30;99.90
5930;DHT22;2990;48.746;9.236;2022-09-30T10:51:53;14.00;99.90
5930;DHT22;2990;48.746;9.236;2022-09-30T10:54:35;13.70;99.90
5930;DHT22;2990;48.746;9.236;2022-09-30T10:57:19;13.60;1.00
5930;DHT22;2990;48.746;9.236;2022-09-30T10:59:47;13.60;37.70
5930;DHT22;2990;48.746;9.236;2022-09-30T11:02:24;13.60;1.00
5930;DHT22;2990;48.746;9.236;2022-09-30T11:05:02;13.70;99.90
5930;DHT22;2990;48.746;9.236;2022-09-30T11:07:35;13.60;99.90
5930;DHT22;2990;48.746;9.236;2022-09-30T11:10:26;13.90;99.90
5930;DHT22;2990;48.746;9.236;2022-09-30T11:15:44;14.70;99.90
5930;DHT22;2990;48.746;9.236;2022-09-30T11:18:22;15.00;99.90
5930;DHT22;2990;48.746;9.236;2022-09-30T11:20:53;15.10;99.90
5930;DHT22;2990;48.746;9.236;2022-09-30T12:14:52;15.20;99.90
5930;DHT22;2990;48.746;9.236;2022-09-30T12:17:33;16.40;53.90
5930;DHT22;2990;48.746;9.236;2022-09-30T12:22:43;16.00;43.10
5930;DHT22;2990;48.746;9.236;2022-09-30T12:25:17;15.90;71.60
5930;DHT22;2990;48.746;9.236;2022-09-30T12:28:07;16.10;57.40
5930;DHT22;2990;48.746;9.236;2022-09-30T12:31:11;16.20;71.20
5930;DHT22;2990;48.746;9.236;2022-09-30T12:36:38;16.50;92.20
5930;DHT22;2990;48.746;9.236;2022-09-30T12:47:55;16.50;26.20
5930;DHT22;2990;48.746;9.236;2022-09-30T12:50:26;16.60;30.20
5930;DHT22;2990;48.746;9.236;2022-09-30T12:52:55;16.70;28.60
5930;DHT22;2990;48.746;9.236;2022-09-30T12:55:28;16.90;15.70
5930;DHT22;2990;48.746;9.236;2022-09-30T12:57:57;16.40;1.00
5930;DHT22;2990;48.746;9.236;2022-09-30T13:01:02;16.50;1.00
5930;DHT22;2990;48.746;9.236;2022-09-30T13:03:19;16.30;1.00
5930;DHT22;2990;48.746;9.236;2022-09-30T13:05:52;16.40;1.30
5930;DHT22;2990;48.746;9.236;2022-09-30T13:10:56;17.00;2.90
5930;DHT22;2990;48.746;9.236;2022-09-30T13:13:29;16.90;1.00
5930;DHT22;2990;48.746;9.236;2022-09-30T13:15:59;16.90;1.00
5930;DHT22;2990;48.746;9.236;2022-09-30T13:23:44;16.60;1.00
5930;DHT22;2990;48.746;9.236;2022-09-30T13:31:30;16.90;1.00
5930;DHT22;2990;48.746;9.236;2022-09-30T13:42:44;16.50;1.00
5930;DHT22;2990;48.746;9.236;2022-09-30T13:50:22;16.40;1.00
5930;DHT22;2990;48.746;9.236;2022-09-30T13:52:54;16.40;1.00
5930;DHT22;2990;48.746;9.236;2022-09-30T13:55:27;16.30;1.00
5930;DHT22;2990;48.746;9.236;2022-09-30T13:58:15;16.50;1.00
5930;DHT22;2990;48.746;9.236;2022-09-30T14:08:53;16.40;1.00
5930;DHT22;2990;48.746;9.236;2022-09-30T14:11:28;16.50;1.00
5930;DHT22;2990;48.746;9.236;2022-09-30T14:14:21;16.40;1.00
5930;DHT22;2990;48.746;9.236;2022-09-30T14:17:04;16.40;1.00
5930;DHT22;2990;48.746;9.236;2022-09-30T14:22:08;16.20;1.00
5930;DHT22;2990;48.746;9.236;2022-09-30T14:24:36;16.20;1.00
5930;DHT22;2990;48.746;9.236;2022-09-30T14:27:16;15.90;1.00
5930;DHT22;2990;48.746;9.236;2022-09-30T14:30:16;15.80;1.00
5930;DHT22;2990;48.746;9.236;2022-09-30T14:32:52;15.60;1.00
5930;DHT22;2990;48.746;9.236;2022-09-30T14:35:21;15.70;12.10
5930;DHT22;2990;48.746;9.236;2022-09-30T14:38:15;15.70;10.70
5930;DHT22;2990;48.746;9.236;2022-09-30T14:40:49;15.60;12.30
5930;DHT22;2990;48.746;9.236;2022-09-30T14:43:19;15.50;3.80
5930;DHT22;2990;48.746;9.236;2022-09-30T14:45:51;15.40;5.60
5930;DHT22;2990;48.746;9.236;2022-09-30T14:48:30;15.30;1.00
5930;DHT22;2990;48.746;9.236;2022-09-30T14:51:06;15.30;17.60
5930;DHT22;2990;48.746;9.236;2022-09-30T14:53:39;15.40;19.70
5930;DHT22;2990;48.746;9.236;2022-09-30T14:56:20;15.30;13.60
5930;DHT22;2990;48.746;9.236;2022-09-30T14:58:47;15.40;1.00
5930;DHT22;2990;48.746;9.236;2022-09-30T15:01:16;15.50;22.00
5930;DHT22;2990;48.746;9.236;2022-09-30T15:03:45;15.60;1.00
5930;DHT22;2990;48.746;9.236;2022-09-30T15:06:17;15.60;1.00
5930;DHT22;2990;48.746;9.236;2022-09-30T15:08:44;15.70;4.30
5930;DHT22;2990;48.746;9.236;2022-09-30T15:11:20;15.80;6.30
5930;DHT22;2990;48.746;9.236;2022-09-30T15:13:47;15.90;3.00
5930;DHT22;2990;48.746;9.236;2022-09-30T15:16:28;15.70;2.10
5930;DHT22;2990;48.746;9.236;2022-09-30T15:18:54;15.60;1.00
5930;DHT22;2990;48.746;9.236;2022-09-30T15:21:21;15.60;1.00
5930;DHT22;2990;48.746;9.236;2022-09-30T15:23:50;15.50;1.00
5930;DHT22;2990;48.746;9.236;2022-09-30T15:26:18;15.60;6.70
5930;DHT22;2990;48.746;9.236;2022-09-30T15:28:45;15.50;1.00
5930;DHT22;2990;48.746;9.236;2022-09-30T15:34:00;15.50;5.10
5930;DHT22;2990;48.746;9.236;2022-09-30T15:36:27;15.40;11.20
5930;DHT22;2990;48.746;9.236;2022-09-30T15:38:52;15.40;11.30
5930;DHT22;2990;48.746;9.236;2022-09-30T15:41:18;15.40;13.20
5930;DHT22;2990;48.746;9.236;2022-09-30T15:43:48;15.30;12.60
5930;DHT22;2990;48.746;9.236;2022-09-30T15:46:32;15.20;10.40
5930;DHT22;2990;48.746;9.236;2022-09-30T15:49:03;15.00;14.80
5930;DHT22;2990;48.746;9.236;2022-09-30T15:54:23;15.00;17.60
5930;DHT22;2990;48.746;9.236;2022-09-30T15:56:48;14.80;14.40
5930;DHT22;2990;48.746;9.236;2022-09-30T15:59:13;14.90;44.50
5930;DHT22;2990;48.746;9.236;2022-09-30T16:01:51;14.90;25.00
5930;DHT22;2990;48.746;9.236;2022-09-30T16:04:22;14.80;30.60
5930;DHT22;2990;48.746;9.236;2022-09-30T16:07:04;14.60;34.90
5930;DHT22;2990;48.746;9.236;2022-09-30T16:09:36;14.60;32.90
5930;DHT22;2990;48.746;9.236;2022-09-30T16:14:32;14.60;42.60
5930;DHT22;2990;48.746;9.236;2022-09-30T16:17:02;14.40;50.80
5930;DHT22;2990;48.746;9.236;2022-09-30T16:19:29;14.50;56.30
5930;DHT22;2990;48.746;9.236;2022-09-30T16:21:55;14.40;76.20
5930;DHT22;2990;48.746;9.236;2022-09-30T16:26:51;14.00;61.90
5930;DHT22;2990;48.746;9.236;2022-09-30T16:29:17;14.10;89.80
5930;DHT22;2990;48.746;9.236;2022-09-30T16:31:45;14.00;93.40
5930;DHT22;2990;48.746;9.236;2022-09-30T16:34:27;13.90;99.90
5930;DHT22;2990;48.746;9.236;2022-09-30T16:37:02;14.00;94.70
5930;DHT22;2990;48.746;9.236;2022-09-30T16:39:28;13.80;96.10
5930;DHT22;2990;48.746;9.236;2022-09-30T16:41:53;13.70;99.90
5930;DHT22;2990;48.746;9.236;2022-09-30T16:44:19;13.60;99.90
5930;DHT22;2990;48.746;9.236;2022-09-30T16:46:47;13.60;99.90
5930;DHT22;2990;48.746;9.236;2022-09-30T16:49:15;13.40;99.90
5930;DHT22;2990;48.746;9.236;2022-09-30T16:51:41;13.40;99.90
5930;DHT22;2990;48.746;9.236;2022-09-30T16:54:07;13.30;99.90
5930;DHT22;2990;48.746;9.236;2022-09-30T16:56:33;13.20;99.90
5930;DHT22;2990;48.746;9.236;2022-09-30T16:58:59;13.10;99.90
5930;DHT22;2990;48.746;9.236;2022-09-30T17:01:25;13.10;99.90
5930;DHT22;2990;48.746;9.236;2022-09-30T17:03:55;13.00;99.90
5930;DHT22;2990;48.746;9.236;2022-09-30T17:06:28;12.90;99.90
5930;DHT22;2990;48.746;9.236;2022-09-30T17:08:54;12.80;99.90
5930;DHT22;2990;48.746;9.236;2022-09-30T17:11:25;12.70;99.90
5930;DHT22;2990;48.746;9.236;2022-09-30T17:53:20;12.70;99.90
5930;DHT22;2990;48.746;9.236;2022-09-30T17:55:47;11.80;1.00
5930;DHT22;2990;48.746;9.236;2022-09-30T17:58:15;11.70;1.00
5930;DHT22;2990;48.746;9.236;2022-09-30T18:00:41;11.60;1.00
5930;DHT22;2990;48.746;9.236;2022-09-30T18:03:07;11.70;1.00
5930;DHT22;2990;48.746;9.236;2022-09-30T18:05:35;11.60;1.00
5930;DHT22;2990;48.746;9.236;2022-09-30T18:08:00;11.40;21.20
5930;DHT22;2990;48.746;9.236;2022-09-30T18:10:26;11.40;99.90
5930;DHT22;2990;48.746;9.236;2022-09-30T18:12:53;11.50;99.90
5930;DHT22;2990;48.746;9.236;2022-09-30T18:15:22;11.40;99.90
5930;DHT22;2990;48.746;9.236;2022-09-30T18:17:48;11.40;99.90
5930;DHT22;2990;48.746;9.236;2022-09-30T18:20:16;11.40;99.90
5930;DHT22;2990;48.746;9.236;2022-09-30T18:22:45;11.30;1.00
5930;DHT22;2990;48.746;9.236;2022-09-30T18:25:21;11.30;1.00
5930;DHT22;2990;48.746;9.236;2022-09-30T18:31:04;11.20;1.00
5930;DHT22;2990;48.746;9.236;2022-09-30T18:33:30;11.20;1.00
5930;DHT22;2990;48.746;9.236;2022-09-30T18:35:59;11.10;64.10
5930;DHT22;2990;48.746;9.236;2022-09-30T18:38:24;11.10;99.90
5930;DHT22;2990;48.746;9.236;2022-09-30T18:40:52;11.10;99.90
5930;DHT22;2990;48.746;9.236;2022-09-30T18:43:19;11.10;35.70
5930;DHT22;2990;48.746;9.236;2022-09-30T18:45:55;11.10;1.00
5930;DHT22;2990;48.746;9.236;2022-09-30T18:48:22;11.10;48.90
5930;DHT22;2990;48.746;9.236;2022-09-30T18:50:48;11.10;99.90
5930;DHT22;2990;48.746;9.236;2022-09-30T18:53:20;11.10;1.00
5930;DHT22;2990;48.746;9.236;2022-09-30T18:55:46;11.10;1.00
5930;DHT22;2990;48.746;9.236;2022-09-30T18:58:12;11.10;99.90
5930;DHT22;2990;48.746;9.236;2022-09-30T19:00:42;11.10;99.90
5930;DHT22;2990;48.746;9.236;2022-09-30T19:03:07;11.00;99.90
5930;DHT22;2990;48.746;9.236;2022-09-30T19:05:34;11.00;1.00
5930;DHT22;2990;48.746;9.236;2022-09-30T19:08:00;10.90;1.00
5930;DHT22;2990;48.746;9.236;2022-09-30T19:10:26;10.90;99.90
5930;DHT22;2990;48.746;9.236;2022-09-30T19:12:52;10.80;1.00
5930;DHT22;2990;48.746;9.236;2022-09-30T19:15:17;10.80;99.90
5930;DHT22;2990;48.746;9.236;2022-09-30T19:17:43;10.80;1.00
5930;DHT22;2990;48.746;9.236;2022-09-30T19:20:09;10.70;99.90
5930;DHT22;2990;48.746;9.236;2022-09-30T19:22:35;10.80;1.00
5930;DHT22;2990;48.746;9.236;2022-09-30T19:25:06;10.70;1.00
5930;DHT22;2990;48.746;9.236;2022-09-30T19:27:33;10.70;1.00
5930;DHT22;2990;48.746;9.236;2022-09-30T19:30:02;10.70;1.00
5930;DHT22;2990;48.746;9.236;2022-09-30T19:32:28;10.60;1.00
5930;DHT22;2990;48.746;9.236;2022-09-30T19:34:59;10.70;99.90
5930;DHT22;2990;48.746;9.236;2022-09-30T19:37:24;10.60;92.30
5930;DHT22;2990;48.746;9.236;2022-09-30T19:39:50;10.60;1.00
5930;DHT22;2990;48.746;9.236;2022-09-30T19:42:15;10.50;99.90
5930;DHT22;2990;48.746;9.236;2022-09-30T19:44:42;10.50;1.00
5930;DHT22;2990;48.746;9.236;2022-09-30T19:47:08;10.50;20.30
5930;DHT22;2990;48.746;9.236;2022-09-30T19:49:34;10.40;1.00
5930;DHT22;2990;48.746;9.236;2022-09-30T19:51:59;10.40;1.00
5930;DHT22;2990;48.746;9.236;2022-09-30T19:54:28;10.40;45.20
5930;DHT22;2990;48.746;9.236;2022-09-30T19:56:54;10.30;99.90
5930;DHT22;2990;48.746;9.236;2022-09-30T19:59:25;10.30;99.90
5930;DHT22;2990;48.746;9.236;2022-09-30T20:01:51;10.30;99.90
5930;DHT22;2990;48.746;9.236;2022-09-30T20:04:16;10.30;99.90
5930;DHT22;2990;48.746;9.236;2022-09-30T20:06:44;10.30;1.00
5930;DHT22;2990;48.746;9.236;2022-09-30T20:09:09;10.00;1.00
5930;DHT22;2990;48.746;9.236;2022-09-30T20:11:37;10.10;1.00
5930;DHT22;2990;48.746;9.236;2022-09-30T20:14:05;10.20;1.00
5930;DHT22;2990;48.746;9.236;2022-09-30T20:16:49;10.10;66.10
5930;DHT22;2990;48.746;9.236;2022-09-30T20:19:16;10.00;99.90
5930;DHT22;2990;48.746;9.236;2022-09-30T20:21:42;9.90;99.90
5930;DHT22;2990;48.746;9.236;2022-09-30T20:24:10;9.90;99.90
5930;DHT22;2990;48.746;9.236;2022-09-30T20:26:38;9.80;99.90
5930;DHT22;2990;48.746;9.236;2022-09-30T20:29:04;9.80;99.90
5930;DHT22;2990;48.746;9.236;2022-09-30T20:33:59;9.80;99.90
5930;DHT22;2990;48.746;9.236;2022-09-30T20:36:26;9.80;99.90
5930;DHT22;2990;48.746;9.236;2022-09-30T20:38:54;9.80;99.90
5930;DHT22;2990;48.746;9.236;2022-09-30T20:41:24;9.80;1.00
5930;DHT22;2990;48.746;9.236;2022-09-30T20:43:50;9.70;1.00
5930;DHT22;2990;48.746;9.236;2022-09-30T20:46:22;9.70;1.00
5930;DHT22;2990;48.746;9.236;2022-09-30T20:48:49;9.70;1.00
5930;DHT22;2990;48.746;9.236;2022-09-30T20:51:16;9.60;1.00
5930;DHT22;2990;48.746;9.236;2022-09-30T20:53:43;9.60;1.00
5930;DHT22;2990;48.746;9.236;2022-09-30T20:56:11;9.70;1.00
5930;DHT22;2990;48.746;9.236;2022-09-30T20:58:39;9.60;1.00
5930;DHT22;2990;48.746;9.236;2022-09-30T21:01:10;9.60;1.00
5930;DHT22;2990;48.746;9.236;2022-09-30T21:03:39;9.50;1.00
5930;DHT22;2990;48.746;9.236;2022-09-30T21:06:06;9.50;1.00
5930;DHT22;2990;48.746;9.236;2022-09-30T21:08:39;9.50;1.00
5930;DHT22;2990;48.746;9.236;2022-09-30T21:11:07;9.50;1.00
5930;DHT22;2990;48.746;9.236;2022-09-30T21:13:33;9.40;1.00
5930;DHT22;2990;48.746;9.236;2022-09-30T21:16:02;9.40;1.00
5930;DHT22;2990;48.746;9.236;2022-09-30T21:18:28;9.30;1.00
5930;DHT22;2990;48.746;9.236;2022-09-30T21:20:59;9.30;1.00
5930;DHT22;2990;48.746;9.236;2022-09-30T21:23:25;9.30;1.00
5930;DHT22;2990;48.746;9.236;2022-09-30T21:25:57;9.40;1.00
5930;DHT22;2990;48.746;9.236;2022-09-30T21:28:23;9.40;1.00
5930;DHT22;2990;48.746;9.236;2022-09-30T21:30:49;9.40;1.00
5930;DHT22;2990;48.746;9.236;2022-09-30T21:33:16;9.40;1.00
5930;DHT22;2990;48.746;9.236;2022-09-30T21:35:42;9.40;1.00
5930;DHT22;2990;48.746;9.236;2022-09-30T21:38:07;9.40;1.00
5930;DHT22;2990;48.746;9.236;2022-09-30T21:40:33;9.40;1.00
5930;DHT22;2990;48.746;9.236;2022-09-30T21:42:58;9.40;1.00
5930;DHT22;2990;48.746;9.236;2022-09-30T21:45:24;9.50;1.00
5930;DHT22;2990;48.746;9.236;2022-09-30T21:47:50;9.40;1.00
5930;DHT22;2990;48.746;9.236;2022-09-30T21:50:15;9.40;1.00
5930;DHT22;2990;48.746;9.236;2022-09-30T21:52:41;9.40;1.00
5930;DHT22;2990;48.746;9.236;2022-09-30T21:55:07;9.30;1.00
5930;DHT22;2990;48.746;9.236;2022-09-30T21:57:33;9.40;1.00
5930;DHT22;2990;48.746;9.236;2022-09-30T21:59:59;9.40;1.00
5930;DHT22;2990;48.746;9.236;2022-09-30T22:02:25;9.40;1.00
5930;DHT22;2990;48.746;9.236;2022-09-30T22:04:51;9.40;1.00
5930;DHT22;2990;48.746;9.236;2022-09-30T22:07:16;9.40;1.00
5930;DHT22;2990;48.746;9.236;2022-09-30T22:09:42;9.40;1.00
5930;DHT22;2990;48.746;9.236;2022-09-30T22:12:08;9.70;1.00
5930;DHT22;2990;48.746;9.236;2022-09-30T22:14:36;9.30;1.00
5930;DHT22;2990;48.746;9.236;2022-09-30T22:17:03;9.40;1.00
5930;DHT22;2990;48.746;9.236;2022-09-30T22:19:32;9.50;1.00
5930;DHT22;2990;48.746;9.236;2022-09-30T22:21:57;9.30;1.00
5930;DHT22;2990;48.746;9.236;2022-09-30T22:24:23;9.30;1.00
5930;DHT22;2990;48.746;9.236;2022-09-30T22:26:49;9.40;1.00
5930;DHT22;2990;48.746;9.236;2022-09-30T22:29:15;9.40;1.00
5930;DHT22;2990;48.746;9.236;2022-09-30T22:31:41;9.40;1.00
5930;DHT22;2990;48.746;9.236;2022-09-30T22:34:08;9.40;1.00
5930;DHT22;2990;48.746;9.236;2022-09-30T22:36:53;9.40;1.00
5930;DHT22;2990;48.746;9.236;2022-09-30T22:39:37;9.40;1.00
5930;DHT22;2990;48.746;9.236;2022-09-30T22:42:03;9.40;1.00
5930;DHT22;2990;48.746;9.236;2022-09-30T22:44:33;9.40;1.00
5930;DHT22;2990;48.746;9.236;2022-09-30T22:47:00;9.40;1.00
5930;DHT22;2990;48.746;9.236;2022-09-30T22:49:27;9.40;1.00
5930;DHT22;2990;48.746;9.236;2022-09-30T22:51:54;9.40;1.00
5930;DHT22;2990;48.746;9.236;2022-09-30T22:54:21;9.50;1.00
5930;DHT22;2990;48.746;9.236;2022-09-30T22:56:48;9.50;1.00
5930;DHT22;2990;48.746;9.236;2022-09-30T22:59:18;9.60;1.00
5930;DHT22;2990;48.746;9.236;2022-09-30T23:01:44;9.50;1.00
5930;DHT22;2990;48.746;9.236;2022-09-30T23:04:11;9.40;1.00
5930;DHT22;2990;48.746;9.236;2022-09-30T23:06:39;9.50;1.00
5930;DHT22;2990;48.746;9.236;2022-09-30T23:09:05;9.40;1.00
5930;DHT22;2990;48.746;9.236;2022-09-30T23:11:30;9.40;1.00
5930;DHT22;2990;48.746;9.236;2022-09-30T23:13:56;9.40;1.00
5930;DHT22;2990;48.746;9.236;2022-09-30T23:16:22;9.40;1.00
5930;DHT22;2990;48.746;9.236;2022-09-30T23:18:47;9.40;1.00
5930;DHT22;2990;48.746;9.236;2022-09-30T23:21:15;9.40;1.00
5930;DHT22;2990;48.746;9.236;2022-09-30T23:23:43;9.40;1.00
5930;DHT22;2990;48.746;9.236;2022-09-30T23:26:15;9.40;1.00
5930;DHT22;2990;48.746;9.236;2022-09-30T23:28:42;9.30;1.00
5930;DHT22;2990;48.746;9.236;2022-09-30T23:31:11;9.30;1.00
5930;DHT22;2990;48.746;9.236;2022-09-30T23:33:39;9.20;1.00
5930;DHT22;2990;48.746;9.236;2022-09-30T23:36:09;9.20;1.00
5930;DHT22;2990;48.746;9.236;2022-09-30T23:38:35;9.10;1.00
5930;DHT22;2990;48.746;9.236;2022-09-30T23:41:01;9.00;1.00
5930;DHT22;2990;48.746;9.236;2022-09-30T23:43:31;8.90;1.00
5930;DHT22;2990;48.746;9.236;2022-09-30T23:45:58;8.80;1.00
5930;DHT22;2990;48.746;9.236;2022-09-30T23:48:25;8.70;1.00
5930;DHT22;2990;48.746;9.236;2022-09-30T23:50:51;8.60;1.00
5930;DHT22;2990;48.746;9.236;2022-09-30T23:53:18;8.60;1.00
5930;DHT22;2990;48.746;9.236;2022-09-30T23:55:58;8.60;1.00
5930;DHT22;2990;48.746;9.236;2022-09-30T23:58:24;8.50;1.00
